sensor_id;sensor_type;location;lat;lon;timestamp;pressure;altitude;pressure_sealevel;temperature;humidity
60697;BME280;46536;54.376;19.858;2023-04-10T00:02:52;102657.36;;;5.47;59.61
60697;BME280;46536;54.376;19.858;2023-04-10T00:05:25;102658.73;;;5.46;59.59
60697;BME280;46536;54.376;19.858;2023-04-10T00:07:59;102657.14;;;5.43;59.70
60697;BME280;46536;54.376;19.858;2023-04-10T00:15:09;102654.00;;;5.31;59.86
60697;BME280;46536;54.376;19.858;2023-04-10T00:17:45;102649.48;;;5.29;59.92
60697;BME280;46536;54.376;19.858;2023-04-10T00:20:38;102645.50;;;5.27;59.80
60697;BME280;46536;54.376;19.858;2023-04-10T00:32:38;102647.46;;;5.22;60.19
60697;BME280;46536;54.376;19.858;2023-04-10T00:35:16;102644.46;;;5.17;60.51
60697;BME280;46536;54.376;19.858;2023-04-10T00:37:46;102643.20;;;5.13;60.65
60697;BME280;46536;54.376;19.858;2023-04-10T00:40:22;102639.38;;;5.11;60.76
60697;BME280;46536;54.376;19.858;2023-04-10T00:42:51;102635.36;;;5.08;60.92
60697;BME280;46536;54.376;19.858;2023-04-10T00:45:20;102637.73;;;5.05;60.74
60697;BME280;46536;54.376;19.858;2023-04-10T00:47:50;102635.92;;;5.01;60.83
60697;BME280;46536;54.376;19.858;2023-04-10T00:50:23;102637.94;;;4.98;61.29
60697;BME280;46536;54.376;19.858;2023-04-10T00:52:55;102639.44;;;4.95;61.57
60697;BME280;46536;54.376;19.858;2023-04-10T00:55:25;102638.89;;;4.93;61.76
60697;BME280;46536;54.376;19.858;2023-04-10T00:57:55;102637.18;;;4.93;61.64
60697;BME280;46536;54.376;19.858;2023-04-10T01:00:25;102640.80;;;4.94;61.47
60697;BME280;46536;54.376;19.858;2023-04-10T01:02:54;102644.41;;;4.93;61.55
60697;BME280;46536;54.376;19.858;2023-04-10T01:05:38;102646.64;;;4.92;61.53
60697;BME280;46536;54.376;19.858;2023-04-10T01:08:36;102649.04;;;4.92;61.57
60697;BME280;46536;54.376;19.858;2023-04-10T01:20:13;102645.25;;;4.83;61.59
60697;BME280;46536;54.376;19.858;2023-04-10T01:25:50;102648.36;;;4.74;61.72
60697;BME280;46536;54.376;19.858;2023-04-10T01:31:15;102638.86;;;4.71;61.52
60697;BME280;46536;54.376;19.858;2023-04-10T01:33:49;102641.05;;;4.69;61.52
60697;BME280;46536;54.376;19.858;2023-04-10T01:36:33;102645.10;;;4.66;61.39
60697;BME280;46536;54.376;19.858;2023-04-10T01:39:04;102644.35;;;4.62;61.36
60697;BME280;46536;54.376;19.858;2023-04-10T01:41:35;102645.69;;;4.60;61.35
60697;BME280;46536;54.376;19.858;2023-04-10T01:44:06;102647.39;;;4.59;61.32
60697;BME280;46536;54.376;19.858;2023-04-10T01:46:37;102645.30;;;4.58;61.08
60697;BME280;46536;54.376;19.858;2023-04-10T01:49:07;102647.69;;;4.56;61.18
60697;BME280;46536;54.376;19.858;2023-04-10T01:51:37;102649.33;;;4.52;61.43
60697;BME280;46536;54.376;19.858;2023-04-10T01:54:10;102646.20;;;4.50;61.35
60697;BME280;46536;54.376;19.858;2023-04-10T01:56:40;102647.87;;;4.48;61.44
60697;BME280;46536;54.376;19.858;2023-04-10T01:59:11;102649.04;;;4.47;61.60
60697;BME280;46536;54.376;19.858;2023-04-10T02:01:40;102648.46;;;4.43;61.50
60697;BME280;46536;54.376;19.858;2023-04-10T02:04:09;102656.00;;;4.42;61.71
60697;BME280;46536;54.376;19.858;2023-04-10T02:09:44;102655.42;;;4.38;61.51
60697;BME280;46536;54.376;19.858;2023-04-10T02:12:22;102655.56;;;4.37;61.31
60697;BME280;46536;54.376;19.858;2023-04-10T02:14:59;102653.48;;;4.36;61.44
60697;BME280;46536;54.376;19.858;2023-04-10T02:17:30;102657.55;;;4.34;61.29
60697;BME280;46536;54.376;19.858;2023-04-10T02:20:03;102657.52;;;4.32;61.32
60697;BME280;46536;54.376;19.858;2023-04-10T02:22:34;102653.34;;;4.30;61.41
60697;BME280;46536;54.376;19.858;2023-04-10T02:25:05;102654.29;;;4.26;61.55
60697;BME280;46536;54.376;19.858;2023-04-10T02:27:35;102650.29;;;4.23;61.78
60697;BME280;46536;54.376;19.858;2023-04-10T02:30:04;102651.11;;;4.21;61.77
60697;BME280;46536;54.376;19.858;2023-04-10T02:32:35;102653.31;;;4.19;61.71
60697;BME280;46536;54.376;19.858;2023-04-10T02:35:08;102655.46;;;4.16;61.79
60697;BME280;46536;54.376;19.858;2023-04-10T02:37:37;102660.41;;;4.14;61.88
60697;BME280;46536;54.376;19.858;2023-04-10T02:40:07;102661.72;;;4.11;61.77
60697;BME280;46536;54.376;19.858;2023-04-10T02:42:43;102660.80;;;4.07;61.49
60697;BME280;46536;54.376;19.858;2023-04-10T02:45:13;102660.38;;;4.04;61.68
60697;BME280;46536;54.376;19.858;2023-04-10T02:47:43;102664.21;;;3.99;61.75
60697;BME280;46536;54.376;19.858;2023-04-10T02:50:12;102664.88;;;3.90;62.16
60697;BME280;46536;54.376;19.858;2023-04-10T02:52:44;102665.80;;;3.84;62.34
60697;BME280;46536;54.376;19.858;2023-04-10T02:55:13;102666.12;;;3.83;62.42
60697;BME280;46536;54.376;19.858;2023-04-10T02:57:45;102662.86;;;3.84;62.43
60697;BME280;46536;54.376;19.858;2023-04-10T03:00:14;102662.54;;;3.85;62.51
60697;BME280;46536;54.376;19.858;2023-04-10T03:02:58;102661.48;;;3.84;62.37
60697;BME280;46536;54.376;19.858;2023-04-10T03:05:29;102663.06;;;3.85;62.50
60697;BME280;46536;54.376;19.858;2023-04-10T03:07:58;102664.96;;;3.85;62.42
60697;BME280;46536;54.376;19.858;2023-04-10T03:10:28;102667.20;;;3.85;62.46
60697;BME280;46536;54.376;19.858;2023-04-10T03:12:57;102667.21;;;3.86;62.53
60697;BME280;46536;54.376;19.858;2023-04-10T03:15:30;102663.95;;;3.86;62.73
60697;BME280;46536;54.376;19.858;2023-04-10T03:18:00;102667.20;;;3.85;62.90
60697;BME280;46536;54.376;19.858;2023-04-10T03:20:29;102673.70;;;3.84;63.14
60697;BME280;46536;54.376;19.858;2023-04-10T03:22:59;102670.09;;;3.84;63.10
60697;BME280;46536;54.376;19.858;2023-04-10T03:25:28;102671.11;;;3.83;63.42
60697;BME280;46536;54.376;19.858;2023-04-10T03:27:59;102670.76;;;3.83;63.73
60697;BME280;46536;54.376;19.858;2023-04-10T03:30:28;102669.56;;;3.83;63.69
60697;BME280;46536;54.376;19.858;2023-04-10T03:32:58;102668.73;;;3.85;63.69
60697;BME280;46536;54.376;19.858;2023-04-10T03:35:27;102666.89;;;3.87;63.68
60697;BME280;46536;54.376;19.858;2023-04-10T03:37:56;102664.89;;;3.90;63.63
60697;BME280;46536;54.376;19.858;2023-04-10T03:40:28;102658.74;;;3.92;63.54
60697;BME280;46536;54.376;19.858;2023-04-10T03:43:00;102664.98;;;3.95;63.44
60697;BME280;46536;54.376;19.858;2023-04-10T03:45:31;102660.52;;;3.96;63.44
60697;BME280;46536;54.376;19.858;2023-04-10T03:48:13;102663.48;;;3.97;63.63
60697;BME280;46536;54.376;19.858;2023-04-10T03:50:44;102665.60;;;3.99;63.61
60697;BME280;46536;54.376;19.858;2023-04-10T03:53:14;102668.90;;;4.01;63.74
60697;BME280;46536;54.376;19.858;2023-04-10T03:55:45;102665.66;;;4.02;63.49
60697;BME280;46536;54.376;19.858;2023-04-10T03:58:14;102668.29;;;4.04;63.57
60697;BME280;46536;54.376;19.858;2023-04-10T04:00:54;102669.67;;;4.04;63.42
60697;BME280;46536;54.376;19.858;2023-04-10T04:03:31;102674.17;;;4.06;63.69
60697;BME280;46536;54.376;19.858;2023-04-10T04:06:00;102670.23;;;4.07;63.92
60697;BME280;46536;54.376;19.858;2023-04-10T04:08:53;102669.06;;;4.08;63.74
60697;BME280;46536;54.376;19.858;2023-04-10T04:11:41;102668.06;;;4.10;63.57
60697;BME280;46536;54.376;19.858;2023-04-10T04:14:36;102674.34;;;4.14;63.86
60697;BME280;46536;54.376;19.858;2023-04-10T04:17:24;102677.83;;;4.16;63.89
60697;BME280;46536;54.376;19.858;2023-04-10T04:20:10;102679.13;;;4.19;64.12
60697;BME280;46536;54.376;19.858;2023-04-10T04:22:51;102681.25;;;4.23;64.04
60697;BME280;46536;54.376;19.858;2023-04-10T04:25:48;102683.21;;;4.26;64.30
60697;BME280;46536;54.376;19.858;2023-04-10T04:28:23;102684.61;;;4.28;64.59
60697;BME280;46536;54.376;19.858;2023-04-10T04:31:11;102686.89;;;4.30;64.73
60697;BME280;46536;54.376;19.858;2023-04-10T04:34:08;102686.05;;;4.31;64.96
60697;BME280;46536;54.376;19.858;2023-04-10T04:36:58;102687.00;;;4.35;64.93
60697;BME280;46536;54.376;19.858;2023-04-10T04:39:39;102686.58;;;4.39;65.08
60697;BME280;46536;54.376;19.858;2023-04-10T04:42:12;102686.84;;;4.44;65.18
60697;BME280;46536;54.376;19.858;2023-04-10T04:45:09;102686.10;;;4.50;65.26
60697;BME280;46536;54.376;19.858;2023-04-10T04:48:13;102693.79;;;4.56;65.33
60697;BME280;46536;54.376;19.858;2023-04-10T04:50:54;102699.89;;;4.59;65.19
60697;BME280;46536;54.376;19.858;2023-04-10T04:53:42;102703.26;;;4.65;65.29
60697;BME280;46536;54.376;19.858;2023-04-10T04:56:37;102703.59;;;4.72;65.35
60697;BME280;46536;54.376;19.858;2023-04-10T04:59:15;102707.66;;;4.78;65.30
60697;BME280;46536;54.376;19.858;2023-04-10T05:02:05;102707.58;;;4.83;65.17
60697;BME280;46536;54.376;19.858;2023-04-10T05:04:44;102712.35;;;4.89;65.31
60697;BME280;46536;54.376;19.858;2023-04-10T05:07:23;102716.59;;;4.95;64.98
60697;BME280;46536;54.376;19.858;2023-04-10T05:10:21;102717.70;;;5.00;65.22
60697;BME280;46536;54.376;19.858;2023-04-10T05:13:11;102719.05;;;4.98;66.36
60697;BME280;46536;54.376;19.858;2023-04-10T05:15:59;102720.44;;;4.99;66.66
60697;BME280;46536;54.376;19.858;2023-04-10T05:18:52;102721.35;;;5.02;66.91
60697;BME280;46536;54.376;19.858;2023-04-10T05:21:40;102725.55;;;5.04;67.28
60697;BME280;46536;54.376;19.858;2023-04-10T05:24:28;102724.66;;;5.12;67.09
60697;BME280;46536;54.376;19.858;2023-04-10T05:27:12;102726.56;;;5.22;67.13
60697;BME280;46536;54.376;19.858;2023-04-10T05:30:02;102724.68;;;5.33;67.38
60697;BME280;46536;54.376;19.858;2023-04-10T05:32:43;102723.32;;;5.43;68.27
60697;BME280;46536;54.376;19.858;2023-04-10T05:35:19;102722.23;;;5.51;69.08
60697;BME280;46536;54.376;19.858;2023-04-10T05:38:17;102723.05;;;5.59;69.60
60697;BME280;46536;54.376;19.858;2023-04-10T05:41:01;102724.02;;;5.65;70.03
60697;BME280;46536;54.376;19.858;2023-04-10T05:43:56;102723.34;;;5.77;69.89
60697;BME280;46536;54.376;19.858;2023-04-10T05:46:45;102728.16;;;5.87;70.21
60697;BME280;46536;54.376;19.858;2023-04-10T05:49:32;102727.85;;;6.00;70.42
60697;BME280;46536;54.376;19.858;2023-04-10T05:52:20;102729.40;;;6.12;70.63
60697;BME280;46536;54.376;19.858;2023-04-10T05:55:03;102731.56;;;6.19;70.89
60697;BME280;46536;54.376;19.858;2023-04-10T05:57:58;102735.48;;;6.26;70.98
60697;BME280;46536;54.376;19.858;2023-04-10T06:00:51;102737.83;;;6.35;71.36
60697;BME280;46536;54.376;19.858;2023-04-10T06:03:39;102744.05;;;6.47;71.32
60697;BME280;46536;54.376;19.858;2023-04-10T06:06:09;102744.14;;;6.56;71.47
60697;BME280;46536;54.376;19.858;2023-04-10T06:08:39;102743.08;;;6.67;71.44
60697;BME280;46536;54.376;19.858;2023-04-10T06:11:08;102743.38;;;6.77;71.09
60697;BME280;46536;54.376;19.858;2023-04-10T06:13:38;102740.38;;;6.87;70.96
60697;BME280;46536;54.376;19.858;2023-04-10T06:16:08;102734.95;;;6.96;71.13
60697;BME280;46536;54.376;19.858;2023-04-10T06:18:37;102731.90;;;7.03;71.00
60697;BME280;46536;54.376;19.858;2023-04-10T06:21:07;102733.72;;;7.10;71.15
60697;BME280;46536;54.376;19.858;2023-04-10T06:23:36;102731.73;;;7.20;71.17
60697;BME280;46536;54.376;19.858;2023-04-10T06:26:14;102734.62;;;7.32;70.85
60697;BME280;46536;54.376;19.858;2023-04-10T06:28:44;102730.38;;;7.40;70.70
60697;BME280;46536;54.376;19.858;2023-04-10T06:31:18;102733.52;;;7.44;70.52
60697;BME280;46536;54.376;19.858;2023-04-10T06:33:48;102736.70;;;7.52;70.53
60697;BME280;46536;54.376;19.858;2023-04-10T06:36:23;102737.99;;;7.62;70.48
60697;BME280;46536;54.376;19.858;2023-04-10T06:38:58;102737.36;;;7.69;70.17
60697;BME280;46536;54.376;19.858;2023-04-10T06:41:27;102738.25;;;7.72;70.08
60697;BME280;46536;54.376;19.858;2023-04-10T06:44:00;102733.94;;;7.75;69.96
60697;BME280;46536;54.376;19.858;2023-04-10T06:46:31;102734.30;;;7.78;69.62
60697;BME280;46536;54.376;19.858;2023-04-10T06:49:01;102739.56;;;7.85;69.71
60697;BME280;46536;54.376;19.858;2023-04-10T06:51:31;102738.58;;;7.95;69.81
60697;BME280;46536;54.376;19.858;2023-04-10T06:54:00;102743.34;;;8.07;69.61
60697;BME280;46536;54.376;19.858;2023-04-10T06:56:38;102740.63;;;8.17;69.23
60697;BME280;46536;54.376;19.858;2023-04-10T06:59:07;102741.04;;;8.28;68.98
60697;BME280;46536;54.376;19.858;2023-04-10T07:01:37;102741.98;;;8.38;68.82
60697;BME280;46536;54.376;19.858;2023-04-10T07:04:06;102743.92;;;8.48;68.63
60697;BME280;46536;54.376;19.858;2023-04-10T07:06:38;102746.76;;;8.56;68.36
60697;BME280;46536;54.376;19.858;2023-04-10T07:09:07;102745.73;;;8.63;68.30
60697;BME280;46536;54.376;19.858;2023-04-10T07:11:37;102743.02;;;8.71;68.11
60697;BME280;46536;54.376;19.858;2023-04-10T07:14:06;102742.16;;;8.80;68.16
60697;BME280;46536;54.376;19.858;2023-04-10T07:16:35;102731.29;;;8.87;67.75
60697;BME280;46536;54.376;19.858;2023-04-10T07:19:04;102731.80;;;8.93;66.99
60697;BME280;46536;54.376;19.858;2023-04-10T07:21:34;102727.30;;;8.96;66.92
60697;BME280;46536;54.376;19.858;2023-04-10T07:24:06;102728.37;;;9.03;67.01
60697;BME280;46536;54.376;19.858;2023-04-10T07:26:35;102726.48;;;9.12;66.89
60697;BME280;46536;54.376;19.858;2023-04-10T07:29:05;102724.06;;;9.23;67.15
60697;BME280;46536;54.376;19.858;2023-04-10T07:31:34;102726.66;;;9.32;66.86
60697;BME280;46536;54.376;19.858;2023-04-10T07:34:07;102722.36;;;9.40;66.36
60697;BME280;46536;54.376;19.858;2023-04-10T07:36:37;102723.73;;;9.45;66.14
60697;BME280;46536;54.376;19.858;2023-04-10T07:39:06;102724.77;;;9.51;66.08
60697;BME280;46536;54.376;19.858;2023-04-10T07:41:35;102725.99;;;9.55;65.72
60697;BME280;46536;54.376;19.858;2023-04-10T07:44:05;102727.04;;;9.61;65.48
60697;BME280;46536;54.376;19.858;2023-04-10T07:46:34;102729.79;;;9.68;65.15
60697;BME280;46536;54.376;19.858;2023-04-10T07:49:03;102726.85;;;9.75;65.03
60697;BME280;46536;54.376;19.858;2023-04-10T07:51:35;102723.55;;;9.81;64.82
60697;BME280;46536;54.376;19.858;2023-04-10T07:54:04;102724.05;;;9.85;64.45
60697;BME280;46536;54.376;19.858;2023-04-10T07:56:34;102724.21;;;9.88;63.97
60697;BME280;46536;54.376;19.858;2023-04-10T07:59:05;102721.27;;;9.92;64.00
60697;BME280;46536;54.376;19.858;2023-04-10T08:01:35;102715.70;;;9.98;63.92
60697;BME280;46536;54.376;19.858;2023-04-10T08:04:04;102712.57;;;10.02;63.97
60697;BME280;46536;54.376;19.858;2023-04-10T08:06:34;102714.30;;;10.08;64.24
60697;BME280;46536;54.376;19.858;2023-04-10T08:09:03;102711.68;;;10.12;63.80
60697;BME280;46536;54.376;19.858;2023-04-10T08:11:34;102710.96;;;10.19;63.85
60697;BME280;46536;54.376;19.858;2023-04-10T08:14:05;102712.20;;;10.24;63.61
60697;BME280;46536;54.376;19.858;2023-04-10T08:16:36;102706.80;;;10.31;63.55
60697;BME280;46536;54.376;19.858;2023-04-10T08:19:07;102708.84;;;10.38;63.25
60697;BME280;46536;54.376;19.858;2023-04-10T08:21:36;102705.52;;;10.45;62.91
60697;BME280;46536;54.376;19.858;2023-04-10T08:24:08;102704.96;;;10.53;62.86
60697;BME280;46536;54.376;19.858;2023-04-10T08:26:39;102703.39;;;10.55;62.62
60697;BME280;46536;54.376;19.858;2023-04-10T08:29:08;102697.81;;;10.57;62.43
60697;BME280;46536;54.376;19.858;2023-04-10T08:31:38;102697.98;;;10.63;62.56
60697;BME280;46536;54.376;19.858;2023-04-10T08:34:07;102697.39;;;10.73;62.66
60697;BME280;46536;54.376;19.858;2023-04-10T08:36:39;102695.91;;;10.88;62.93
60697;BME280;46536;54.376;19.858;2023-04-10T08:39:09;102692.31;;;11.08;62.89
60697;BME280;46536;54.376;19.858;2023-04-10T08:41:39;102690.89;;;11.34;63.20
60697;BME280;46536;54.376;19.858;2023-04-10T08:44:09;102691.34;;;11.62;62.55
60697;BME280;46536;54.376;19.858;2023-04-10T08:46:42;102693.70;;;11.90;62.09
60697;BME280;46536;54.376;19.858;2023-04-10T08:49:18;102696.02;;;12.18;61.51
60697;BME280;46536;54.376;19.858;2023-04-10T08:51:55;102695.86;;;12.46;60.92
60697;BME280;46536;54.376;19.858;2023-04-10T08:54:28;102696.05;;;12.71;60.22
60697;BME280;46536;54.376;19.858;2023-04-10T08:56:58;102696.24;;;12.94;59.40
60697;BME280;46536;54.376;19.858;2023-04-10T08:59:32;102692.09;;;13.16;59.04
60697;BME280;46536;54.376;19.858;2023-04-10T09:02:04;102690.68;;;13.39;58.36
60697;BME280;46536;54.376;19.858;2023-04-10T09:04:51;102692.13;;;13.56;57.70
60697;BME280;46536;54.376;19.858;2023-04-10T09:07:23;102690.86;;;13.79;57.33
60697;BME280;46536;54.376;19.858;2023-04-10T09:09:52;102689.30;;;13.97;56.62
60697;BME280;46536;54.376;19.858;2023-04-10T09:12:24;102685.54;;;14.11;56.38
60697;BME280;46536;54.376;19.858;2023-04-10T09:14:55;102683.92;;;14.29;56.20
60697;BME280;46536;54.376;19.858;2023-04-10T09:17:24;102679.94;;;14.46;55.66
60697;BME280;46536;54.376;19.858;2023-04-10T09:19:55;102678.58;;;14.60;55.14
60697;BME280;46536;54.376;19.858;2023-04-10T09:22:32;102675.53;;;14.72;54.60
60697;BME280;46536;54.376;19.858;2023-04-10T09:25:03;102669.40;;;14.80;53.95
60697;BME280;46536;54.376;19.858;2023-04-10T09:27:33;102668.38;;;14.86;53.91
60697;BME280;46536;54.376;19.858;2023-04-10T09:30:04;102665.55;;;14.95;53.66
60697;BME280;46536;54.376;19.858;2023-04-10T09:32:38;102668.73;;;15.08;53.43
60697;BME280;46536;54.376;19.858;2023-04-10T09:35:10;102663.63;;;15.23;52.99
60697;BME280;46536;54.376;19.858;2023-04-10T09:37:40;102658.88;;;15.38;52.83
60697;BME280;46536;54.376;19.858;2023-04-10T09:40:23;102650.38;;;15.49;52.22
60697;BME280;46536;54.376;19.858;2023-04-10T09:42:55;102651.61;;;15.63;52.09
60697;BME280;46536;54.376;19.858;2023-04-10T09:45:25;102644.80;;;15.74;51.46
60697;BME280;46536;54.376;19.858;2023-04-10T09:48:05;102643.05;;;15.81;51.08
60697;BME280;46536;54.376;19.858;2023-04-10T09:50:36;102639.30;;;15.90;50.95
60697;BME280;46536;54.376;19.858;2023-04-10T09:53:09;102635.77;;;15.97;50.36
60697;BME280;46536;54.376;19.858;2023-04-10T09:55:40;102626.45;;;15.98;50.20
60697;BME280;46536;54.376;19.858;2023-04-10T09:58:09;102626.12;;;16.04;49.95
60697;BME280;46536;54.376;19.858;2023-04-10T10:00:46;102620.98;;;16.11;50.04
60697;BME280;46536;54.376;19.858;2023-04-10T10:03:17;102621.51;;;16.18;49.06
60697;BME280;46536;54.376;19.858;2023-04-10T10:05:49;102616.52;;;16.26;49.50
60697;BME280;46536;54.376;19.858;2023-04-10T10:08:19;102614.32;;;16.35;49.69
60697;BME280;46536;54.376;19.858;2023-04-10T10:10:55;102619.91;;;16.47;49.54
60697;BME280;46536;54.376;19.858;2023-04-10T10:16:47;102618.59;;;16.68;49.19
60697;BME280;46536;54.376;19.858;2023-04-10T10:19:37;102613.45;;;16.80;48.63
60697;BME280;46536;54.376;19.858;2023-04-10T10:22:09;102615.93;;;16.96;48.63
60697;BME280;46536;54.376;19.858;2023-04-10T10:24:39;102611.50;;;17.08;48.24
60697;BME280;46536;54.376;19.858;2023-04-10T10:27:15;102606.61;;;17.17;47.77
60697;BME280;46536;54.376;19.858;2023-04-10T10:29:47;102604.66;;;17.23;47.08
60697;BME280;46536;54.376;19.858;2023-04-10T10:32:17;102598.84;;;17.29;47.00
60697;BME280;46536;54.376;19.858;2023-04-10T10:34:46;102601.62;;;17.34;46.56
60697;BME280;46536;54.376;19.858;2023-04-10T10:37:16;102600.52;;;17.36;46.28
60697;BME280;46536;54.376;19.858;2023-04-10T10:43:18;102600.64;;;17.38;45.74
60697;BME280;46536;54.376;19.858;2023-04-10T10:45:59;102596.79;;;17.38;45.52
60697;BME280;46536;54.376;19.858;2023-04-10T10:48:29;102597.54;;;17.35;45.31
60697;BME280;46536;54.376;19.858;2023-04-10T10:50:59;102594.77;;;17.30;45.44
60697;BME280;46536;54.376;19.858;2023-04-10T10:53:42;102591.45;;;17.24;45.12
60697;BME280;46536;54.376;19.858;2023-04-10T10:58:50;102584.04;;;17.25;45.30
60697;BME280;46536;54.376;19.858;2023-04-10T11:01:20;102583.96;;;17.27;44.87
60697;BME280;46536;54.376;19.858;2023-04-10T11:03:50;102585.66;;;17.29;45.01
60697;BME280;46536;54.376;19.858;2023-04-10T11:06:48;102584.20;;;17.30;44.36
60697;BME280;46536;54.376;19.858;2023-04-10T11:09:43;102589.41;;;17.27;44.87
60697;BME280;46536;54.376;19.858;2023-04-10T11:12:12;102583.71;;;17.29;44.67
60697;BME280;46536;54.376;19.858;2023-04-10T11:14:42;102581.60;;;17.29;44.70
60697;BME280;46536;54.376;19.858;2023-04-10T11:17:11;102585.20;;;17.32;44.58
60697;BME280;46536;54.376;19.858;2023-04-10T11:19:57;102582.16;;;17.38;44.65
60697;BME280;46536;54.376;19.858;2023-04-10T11:22:28;102582.77;;;17.46;44.96
60697;BME280;46536;54.376;19.858;2023-04-10T11:24:59;102585.09;;;17.50;45.19
60697;BME280;46536;54.376;19.858;2023-04-10T11:27:46;102586.94;;;17.47;45.31
60697;BME280;46536;54.376;19.858;2023-04-10T11:30:34;102582.91;;;17.42;44.70
60697;BME280;46536;54.376;19.858;2023-04-10T11:33:04;102582.86;;;17.43;45.47
60697;BME280;46536;54.376;19.858;2023-04-10T11:35:33;102575.92;;;17.51;45.57
60697;BME280;46536;54.376;19.858;2023-04-10T11:38:16;102569.33;;;17.59;44.96
60697;BME280;46536;54.376;19.858;2023-04-10T11:41:01;102568.33;;;17.62;44.66
60697;BME280;46536;54.376;19.858;2023-04-10T11:43:32;102561.65;;;17.62;44.24
60697;BME280;46536;54.376;19.858;2023-04-10T11:46:04;102564.52;;;17.64;44.15
60697;BME280;46536;54.376;19.858;2023-04-10T11:48:36;102553.76;;;17.66;43.72
60697;BME280;46536;54.376;19.858;2023-04-10T11:51:12;102550.19;;;17.68;44.49
60697;BME280;46536;54.376;19.858;2023-04-10T11:53:42;102546.95;;;17.75;44.27
60697;BME280;46536;54.376;19.858;2023-04-10T11:56:17;102546.39;;;17.81;43.71
60697;BME280;46536;54.376;19.858;2023-04-10T11:58:49;102547.76;;;17.86;43.97
60697;BME280;46536;54.376;19.858;2023-04-10T12:01:22;102544.45;;;17.95;44.05
60697;BME280;46536;54.376;19.858;2023-04-10T12:03:51;102541.12;;;17.99;43.39
60697;BME280;46536;54.376;19.858;2023-04-10T12:06:20;102538.77;;;17.96;43.63
60697;BME280;46536;54.376;19.858;2023-04-10T12:08:50;102535.91;;;17.97;43.12
60697;BME280;46536;54.376;19.858;2023-04-10T12:11:23;102531.73;;;17.96;42.74
60697;BME280;46536;54.376;19.858;2023-04-10T12:13:54;102529.59;;;17.97;42.72
60697;BME280;46536;54.376;19.858;2023-04-10T12:16:26;102529.52;;;17.98;42.67
60697;BME280;46536;54.376;19.858;2023-04-10T12:18:55;102530.05;;;17.95;42.04
60697;BME280;46536;54.376;19.858;2023-04-10T12:21:24;102531.35;;;17.88;42.24
60697;BME280;46536;54.376;19.858;2023-04-10T12:23:55;102530.99;;;17.83;41.38
60697;BME280;46536;54.376;19.858;2023-04-10T12:26:23;102523.70;;;17.66;42.04
60697;BME280;46536;54.376;19.858;2023-04-10T12:28:55;102522.56;;;17.59;42.17
60697;BME280;46536;54.376;19.858;2023-04-10T12:31:35;102515.60;;;17.53;42.16
60697;BME280;46536;54.376;19.858;2023-04-10T12:34:04;102513.33;;;17.43;42.91
60697;BME280;46536;54.376;19.858;2023-04-10T12:36:37;102512.14;;;17.42;42.37
60697;BME280;46536;54.376;19.858;2023-04-10T12:39:20;102511.83;;;17.35;42.34
60697;BME280;46536;54.376;19.858;2023-04-10T12:41:49;102511.70;;;17.29;42.49
60697;BME280;46536;54.376;19.858;2023-04-10T12:44:19;102516.09;;;17.30;43.00
60697;BME280;46536;54.376;19.858;2023-04-10T12:46:48;102510.90;;;17.27;42.26
60697;BME280;46536;54.376;19.858;2023-04-10T12:49:17;102509.63;;;17.18;42.32
60697;BME280;46536;54.376;19.858;2023-04-10T12:51:50;102504.81;;;17.11;42.87
60697;BME280;46536;54.376;19.858;2023-04-10T12:54:27;102505.42;;;17.09;42.91
60697;BME280;46536;54.376;19.858;2023-04-10T12:57:02;102506.89;;;17.07;42.46
60697;BME280;46536;54.376;19.858;2023-04-10T12:59:34;102503.28;;;17.00;43.02
60697;BME280;46536;54.376;19.858;2023-04-10T13:02:02;102498.65;;;16.97;43.47
60697;BME280;46536;54.376;19.858;2023-04-10T13:04:31;102489.90;;;17.01;43.43
60697;BME280;46536;54.376;19.858;2023-04-10T13:07:00;102494.69;;;17.05;42.98
60697;BME280;46536;54.376;19.858;2023-04-10T13:09:32;102493.61;;;17.05;42.77
60697;BME280;46536;54.376;19.858;2023-04-10T13:12:01;102485.39;;;16.99;42.58
60697;BME280;46536;54.376;19.858;2023-04-10T13:14:31;102481.98;;;16.97;43.18
60697;BME280;46536;54.376;19.858;2023-04-10T13:17:00;102479.51;;;17.02;43.29
60697;BME280;46536;54.376;19.858;2023-04-10T13:19:29;102475.80;;;17.07;43.05
60697;BME280;46536;54.376;19.858;2023-04-10T13:26:49;102462.12;;;16.97;42.04
60697;BME280;46536;54.376;19.858;2023-04-10T13:29:18;102458.65;;;16.96;42.92
60697;BME280;46536;54.376;19.858;2023-04-10T13:31:58;102450.41;;;17.00;42.50
60697;BME280;46536;54.376;19.858;2023-04-10T13:34:31;102442.15;;;17.06;42.44
60697;BME280;46536;54.376;19.858;2023-04-10T13:37:00;102436.88;;;17.10;41.18
60697;BME280;46536;54.376;19.858;2023-04-10T13:39:45;102440.03;;;17.15;41.51
60697;BME280;46536;54.376;19.858;2023-04-10T13:46:52;102428.02;;;17.37;40.61
60697;BME280;46536;54.376;19.858;2023-04-10T13:49:21;102427.05;;;17.39;39.89
60697;BME280;46536;54.376;19.858;2023-04-10T13:51:53;102425.53;;;17.37;39.98
60697;BME280;46536;54.376;19.858;2023-04-10T13:54:22;102423.13;;;17.31;39.62
60697;BME280;46536;54.376;19.858;2023-04-10T13:56:52;102416.45;;;17.26;40.42
60697;BME280;46536;54.376;19.858;2023-04-10T13:59:22;102413.73;;;17.29;39.90
60697;BME280;46536;54.376;19.858;2023-04-10T14:01:52;102411.91;;;17.35;40.50
60697;BME280;46536;54.376;19.858;2023-04-10T14:04:21;102406.85;;;17.43;40.65
60697;BME280;46536;54.376;19.858;2023-04-10T14:06:50;102407.55;;;17.53;40.76
60697;BME280;46536;54.376;19.858;2023-04-10T14:09:20;102406.17;;;17.61;40.21
60697;BME280;46536;54.376;19.858;2023-04-10T14:11:49;102403.98;;;17.68;40.34
60697;BME280;46536;54.376;19.858;2023-04-10T14:14:18;102404.38;;;17.76;40.35